sensor_id;sensor_type;location;lat;lon;timestamp;pressure;altitude;pressure_sealevel;temperature;humidity
40285;BME280;25997;50.214;19.354;2023-03-21T00:01:37;97764.38;;;8.62;62.86
40285;BME280;25997;50.214;19.354;2023-03-21T00:04:40;97760.06;;;8.64;62.95
40285;BME280;25997;50.214;19.354;2023-03-21T00:07:42;97765.38;;;8.67;62.44
40285;BME280;25997;50.214;19.354;2023-03-21T00:10:46;97751.50;;;8.69;62.40
40285;BME280;25997;50.214;19.354;2023-03-21T00:13:48;97749.06;;;8.75;62.13
40285;BME280;25997;50.214;19.354;2023-03-21T00:16:53;97741.34;;;8.80;62.26
40285;BME280;25997;50.214;19.354;2023-03-21T00:19:55;97742.28;;;8.82;61.90
40285;BME280;25997;50.214;19.354;2023-03-21T00:22:58;97742.34;;;8.85;62.02
40285;BME280;25997;50.214;19.354;2023-03-21T00:26:01;97751.25;;;8.90;61.71
40285;BME280;25997;50.214;19.354;2023-03-21T00:29:04;97749.47;;;8.89;61.87
40285;BME280;25997;50.214;19.354;2023-03-21T00:32:07;97745.22;;;8.92;61.95
40285;BME280;25997;50.214;19.354;2023-03-21T00:35:09;97737.50;;;8.97;62.04
40285;BME280;25997;50.214;19.354;2023-03-21T00:38:12;97735.69;;;8.96;61.94
40285;BME280;25997;50.214;19.354;2023-03-21T00:41:16;97735.69;;;8.96;62.14
40285;BME280;25997;50.214;19.354;2023-03-21T00:44:18;97739.22;;;8.96;61.96
40285;BME280;25997;50.214;19.354;2023-03-21T00:47:21;97730.44;;;8.94;62.04
40285;BME280;25997;50.214;19.354;2023-03-21T00:50:24;97725.16;;;8.93;61.99
40285;BME280;25997;50.214;19.354;2023-03-21T00:53:28;97736.47;;;8.92;61.99
40285;BME280;25997;50.214;19.354;2023-03-21T00:56:34;97725.84;;;8.87;62.19
40285;BME280;25997;50.214;19.354;2023-03-21T00:59:36;97736.81;;;8.74;62.75
40285;BME280;25997;50.214;19.354;2023-03-21T01:02:39;97728.66;;;8.64;63.37
40285;BME280;25997;50.214;19.354;2023-03-21T01:05:56;97748.47;;;8.55;64.09
40285;BME280;25997;50.214;19.354;2023-03-21T01:09:11;97733.00;;;8.63;63.97
40285;BME280;25997;50.214;19.354;2023-03-21T01:12:15;97733.28;;;8.72;63.55
40285;BME280;25997;50.214;19.354;2023-03-21T01:15:18;97734.34;;;8.80;63.42
40285;BME280;25997;50.214;19.354;2023-03-21T01:18:23;97726.69;;;8.86;63.00
40285;BME280;25997;50.214;19.354;2023-03-21T01:21:27;97733.84;;;8.92;62.68
40285;BME280;25997;50.214;19.354;2023-03-21T01:24:29;97728.50;;;8.89;63.01
40285;BME280;25997;50.214;19.354;2023-03-21T01:27:33;97734.78;;;8.94;62.68
40285;BME280;25997;50.214;19.354;2023-03-21T01:30:36;97736.69;;;8.99;62.53
40285;BME280;25997;50.214;19.354;2023-03-21T01:33:39;97734.06;;;8.99;62.88
40285;BME280;25997;50.214;19.354;2023-03-21T01:36:42;97735.16;;;9.07;62.33
40285;BME280;25997;50.214;19.354;2023-03-21T01:39:49;97735.13;;;9.06;62.14
40285;BME280;25997;50.214;19.354;2023-03-21T01:42:53;97733.44;;;9.08;62.42
40285;BME280;25997;50.214;19.354;2023-03-21T01:50:01;97729.88;;;9.06;62.25
40285;BME280;25997;50.214;19.354;2023-03-21T01:53:19;97728.91;;;9.02;62.29
40285;BME280;25997;50.214;19.354;2023-03-21T01:56:24;97736.59;;;8.96;62.15
40285;BME280;25997;50.214;19.354;2023-03-21T01:59:40;97731.19;;;8.90;62.40
40285;BME280;25997;50.214;19.354;2023-03-21T02:02:49;97731.03;;;8.86;62.49
40285;BME280;25997;50.214;19.354;2023-03-21T02:06:31;97725.81;;;8.86;62.42
40285;BME280;25997;50.214;19.354;2023-03-21T02:09:51;97732.84;;;8.88;62.35
40285;BME280;25997;50.214;19.354;2023-03-21T02:12:59;97734.47;;;8.85;62.53
40285;BME280;25997;50.214;19.354;2023-03-21T02:16:13;97724.91;;;8.85;62.52
40285;BME280;25997;50.214;19.354;2023-03-21T02:27:01;97729.09;;;8.79;62.54
40285;BME280;25997;50.214;19.354;2023-03-21T02:30:32;97724.50;;;8.70;63.18
40285;BME280;25997;50.214;19.354;2023-03-21T02:37:12;97723.69;;;8.73;62.59
40285;BME280;25997;50.214;19.354;2023-03-21T02:40:22;97721.13;;;8.76;62.70
40285;BME280;25997;50.214;19.354;2023-03-21T02:43:30;97721.22;;;8.79;62.58
40285;BME280;25997;50.214;19.354;2023-03-21T02:46:42;97716.00;;;8.79;62.66
40285;BME280;25997;50.214;19.354;2023-03-21T02:49:51;97715.91;;;8.76;62.57
40285;BME280;25997;50.214;19.354;2023-03-21T02:52:59;97715.09;;;8.78;62.66
40285;BME280;25997;50.214;19.354;2023-03-21T02:56:07;97716.94;;;8.81;62.40
40285;BME280;25997;50.214;19.354;2023-03-21T02:59:15;97717.59;;;8.74;62.67
40285;BME280;25997;50.214;19.354;2023-03-21T03:02:23;97714.03;;;8.70;62.83
40285;BME280;25997;50.214;19.354;2023-03-21T03:05:28;97725.19;;;8.65;63.07
40285;BME280;25997;50.214;19.354;2023-03-21T03:08:41;97719.03;;;8.63;63.27
40285;BME280;25997;50.214;19.354;2023-03-21T03:11:46;97732.19;;;8.64;63.20
40285;BME280;25997;50.214;19.354;2023-03-21T03:14:56;97725.13;;;8.62;63.41
40285;BME280;25997;50.214;19.354;2023-03-21T03:18:10;97723.97;;;8.52;63.66
40285;BME280;25997;50.214;19.354;2023-03-21T03:21:18;97726.41;;;8.46;64.11
40285;BME280;25997;50.214;19.354;2023-03-21T03:24:27;97722.72;;;8.39;64.16
40285;BME280;25997;50.214;19.354;2023-03-21T03:27:34;97722.66;;;8.38;64.48
40285;BME280;25997;50.214;19.354;2023-03-21T03:30:39;97724.34;;;8.36;64.28
40285;BME280;25997;50.214;19.354;2023-03-21T03:33:44;97721.81;;;8.37;64.28
40285;BME280;25997;50.214;19.354;2023-03-21T03:36:50;97717.50;;;8.39;64.19
40285;BME280;25997;50.214;19.354;2023-03-21T03:40:02;97720.13;;;8.39;64.34
40285;BME280;25997;50.214;19.354;2023-03-21T03:43:10;97718.44;;;8.41;64.08
40285;BME280;25997;50.214;19.354;2023-03-21T03:46:18;97708.91;;;8.43;64.09
40285;BME280;25997;50.214;19.354;2023-03-21T03:49:28;97711.47;;;8.42;64.03
40285;BME280;25997;50.214;19.354;2023-03-21T03:52:36;97709.72;;;8.42;64.01
40285;BME280;25997;50.214;19.354;2023-03-21T03:55:48;97712.06;;;8.33;64.43
40285;BME280;25997;50.214;19.354;2023-03-21T03:58:52;97704.06;;;8.27;64.67
40285;BME280;25997;50.214;19.354;2023-03-21T04:02:01;97710.28;;;8.31;64.61
40285;BME280;25997;50.214;19.354;2023-03-21T04:05:04;97711.22;;;8.33;64.57
40285;BME280;25997;50.214;19.354;2023-03-21T04:08:08;97717.41;;;8.36;64.37
40285;BME280;25997;50.214;19.354;2023-03-21T04:11:17;97717.41;;;8.36;64.70
40285;BME280;25997;50.214;19.354;2023-03-21T04:14:25;97725.91;;;8.29;65.07
40285;BME280;25997;50.214;19.354;2023-03-21T04:17:27;97732.03;;;8.30;65.09
40285;BME280;25997;50.214;19.354;2023-03-21T04:20:30;97728.47;;;8.28;65.32
40285;BME280;25997;50.214;19.354;2023-03-21T04:23:32;97721.44;;;8.25;65.47
40285;BME280;25997;50.214;19.354;2023-03-21T04:26:38;97720.63;;;8.28;65.34
40285;BME280;25997;50.214;19.354;2023-03-21T04:29:59;97730.22;;;8.27;65.57
40285;BME280;25997;50.214;19.354;2023-03-21T04:33:27;97724.94;;;8.26;65.71
40285;BME280;25997;50.214;19.354;2023-03-21T04:36:31;97719.84;;;8.30;65.47
40285;BME280;25997;50.214;19.354;2023-03-21T04:39:41;97719.09;;;8.34;65.31
40285;BME280;25997;50.214;19.354;2023-03-21T04:42:46;97718.28;;;8.37;65.43
40285;BME280;25997;50.214;19.354;2023-03-21T04:45:49;97712.31;;;8.41;65.19
40285;BME280;25997;50.214;19.354;2023-03-21T04:48:52;97717.63;;;8.44;64.98
40285;BME280;25997;50.214;19.354;2023-03-21T04:51:55;97718.59;;;8.47;65.02
40285;BME280;25997;50.214;19.354;2023-03-21T04:54:57;97722.81;;;8.42;65.04
40285;BME280;25997;50.214;19.354;2023-03-21T04:58:01;97727.91;;;8.38;65.25
40285;BME280;25997;50.214;19.354;2023-03-21T05:01:05;97727.72;;;8.32;65.40
40285;BME280;25997;50.214;19.354;2023-03-21T05:04:07;97724.94;;;8.26;65.38
40285;BME280;25997;50.214;19.354;2023-03-21T05:07:10;97722.88;;;8.16;65.80
40285;BME280;25997;50.214;19.354;2023-03-21T05:10:13;97717.72;;;8.17;65.56
40285;BME280;25997;50.214;19.354;2023-03-21T05:13:17;97719.31;;;8.14;65.71
40285;BME280;25997;50.214;19.354;2023-03-21T05:16:21;97718.41;;;8.12;65.56
40285;BME280;25997;50.214;19.354;2023-03-21T05:19:29;97722.81;;;8.13;65.76
40285;BME280;25997;50.214;19.354;2023-03-21T05:22:35;97724.56;;;8.14;65.71
40285;BME280;25997;50.214;19.354;2023-03-21T05:25:43;97726.31;;;8.13;65.88
40285;BME280;25997;50.214;19.354;2023-03-21T05:28:54;97729.66;;;8.09;66.00
40285;BME280;25997;50.214;19.354;2023-03-21T05:31:59;97728.19;;;8.17;65.73
40285;BME280;25997;50.214;19.354;2023-03-21T05:35:02;97729.72;;;8.11;66.03
40285;BME280;25997;50.214;19.354;2023-03-21T05:38:05;97730.78;;;8.17;66.06
40285;BME280;25997;50.214;19.354;2023-03-21T05:41:19;97736.16;;;8.22;65.78
40285;BME280;25997;50.214;19.354;2023-03-21T05:44:24;97737.22;;;8.28;65.74
40285;BME280;25997;50.214;19.354;2023-03-21T05:47:26;97737.09;;;8.24;66.08
40285;BME280;25997;50.214;19.354;2023-03-21T05:50:31;97737.09;;;8.24;66.09
40285;BME280;25997;50.214;19.354;2023-03-21T05:53:48;97737.13;;;8.25;66.02
40285;BME280;25997;50.214;19.354;2023-03-21T05:56:52;97742.81;;;8.40;65.72
40285;BME280;25997;50.214;19.354;2023-03-21T06:00:20;97739.19;;;8.35;65.60
40285;BME280;25997;50.214;19.354;2023-03-21T06:03:46;97747.69;;;8.28;66.11
40285;BME280;25997;50.214;19.354;2023-03-21T06:06:55;97749.72;;;8.38;65.59
40285;BME280;25997;50.214;19.354;2023-03-21T06:09:58;97747.25;;;8.43;65.73
40285;BME280;25997;50.214;19.354;2023-03-21T06:13:00;97744.66;;;8.44;65.89
40285;BME280;25997;50.214;19.354;2023-03-21T06:16:08;97743.16;;;8.51;65.94
40285;BME280;25997;50.214;19.354;2023-03-21T06:19:12;97740.69;;;8.57;65.99
40285;BME280;25997;50.214;19.354;2023-03-21T06:22:44;97733.66;;;8.56;66.07
40285;BME280;25997;50.214;19.354;2023-03-21T06:25:47;97747.69;;;8.58;65.84
40285;BME280;25997;50.214;19.354;2023-03-21T06:28:50;97757.06;;;8.50;66.26
40285;BME280;25997;50.214;19.354;2023-03-21T06:31:55;97745.19;;;8.63;65.88
40285;BME280;25997;50.214;19.354;2023-03-21T06:34:57;97736.41;;;8.61;65.41
40285;BME280;25997;50.214;19.354;2023-03-21T06:38:00;97748.53;;;8.57;65.42
40285;BME280;25997;50.214;19.354;2023-03-21T06:41:06;97758.59;;;8.43;65.80
40285;BME280;25997;50.214;19.354;2023-03-21T06:44:15;97755.66;;;8.33;66.11
40285;BME280;25997;50.214;19.354;2023-03-21T06:47:28;97750.00;;;8.47;65.71
40285;BME280;25997;50.214;19.354;2023-03-21T06:50:31;97753.50;;;8.48;65.76
40285;BME280;25997;50.214;19.354;2023-03-21T06:53:34;97751.84;;;8.51;65.65
40285;BME280;25997;50.214;19.354;2023-03-21T06:56:55;97746.09;;;8.63;65.66
40285;BME280;25997;50.214;19.354;2023-03-21T07:00:03;97753.41;;;8.45;65.62
40285;BME280;25997;50.214;19.354;2023-03-21T07:03:11;97759.78;;;8.53;65.81
40285;BME280;25997;50.214;19.354;2023-03-21T07:06:13;97755.09;;;8.73;65.56
40285;BME280;25997;50.214;19.354;2023-03-21T07:09:17;97753.13;;;8.64;65.58
40285;BME280;25997;50.214;19.354;2023-03-21T07:12:22;97756.72;;;8.69;65.44
40285;BME280;25997;50.214;19.354;2023-03-21T07:15:51;97767.13;;;8.66;65.50
40285;BME280;25997;50.214;19.354;2023-03-21T07:18:55;97770.16;;;8.80;65.35
40285;BME280;25997;50.214;19.354;2023-03-21T07:21:57;97769.91;;;8.72;65.29
40285;BME280;25997;50.214;19.354;2023-03-21T07:25:03;97779.59;;;8.75;65.40
40285;BME280;25997;50.214;19.354;2023-03-21T07:28:17;97777.00;;;8.76;65.27
40285;BME280;25997;50.214;19.354;2023-03-21T07:31:20;97772.06;;;8.87;65.28
40285;BME280;25997;50.214;19.354;2023-03-21T07:34:27;97773.97;;;8.91;64.80
40285;BME280;25997;50.214;19.354;2023-03-21T07:37:33;97774.00;;;8.92;64.68
40285;BME280;25997;50.214;19.354;2023-03-21T07:40:36;97775.75;;;8.92;64.42
40285;BME280;25997;50.214;19.354;2023-03-21T07:43:38;97781.66;;;8.86;64.67
40285;BME280;25997;50.214;19.354;2023-03-21T07:46:44;97785.78;;;8.78;64.72
40285;BME280;25997;50.214;19.354;2023-03-21T07:49:48;97779.63;;;8.76;64.78
40285;BME280;25997;50.214;19.354;2023-03-21T07:52:51;97786.56;;;8.76;64.70
40285;BME280;25997;50.214;19.354;2023-03-21T07:55:54;97780.66;;;8.81;64.65
40285;BME280;25997;50.214;19.354;2023-03-21T07:58:57;97779.97;;;8.88;64.33
40285;BME280;25997;50.214;19.354;2023-03-21T08:02:00;97791.59;;;8.98;64.12
40285;BME280;25997;50.214;19.354;2023-03-21T08:05:04;97797.81;;;9.00;64.03
40285;BME280;25997;50.214;19.354;2023-03-21T08:08:07;97785.28;;;8.90;64.50
40285;BME280;25997;50.214;19.354;2023-03-21T08:11:10;97795.59;;;8.85;64.63
40285;BME280;25997;50.214;19.354;2023-03-21T08:14:13;97789.56;;;8.88;64.55
40285;BME280;25997;50.214;19.354;2023-03-21T08:17:15;97792.59;;;9.01;64.71
40285;BME280;25997;50.214;19.354;2023-03-21T08:20:21;97792.13;;;9.16;64.81
40285;BME280;25997;50.214;19.354;2023-03-21T08:23:24;97793.38;;;9.28;64.57
40285;BME280;25997;50.214;19.354;2023-03-21T08:26:26;97795.25;;;9.34;64.55
40285;BME280;25997;50.214;19.354;2023-03-21T08:29:29;97787.50;;;9.39;64.45
40285;BME280;25997;50.214;19.354;2023-03-21T08:32:31;97798.13;;;9.45;64.27
40285;BME280;25997;50.214;19.354;2023-03-21T08:35:35;97807.00;;;9.48;64.39
40285;BME280;25997;50.214;19.354;2023-03-21T08:38:38;97808.69;;;9.46;64.04
40285;BME280;25997;50.214;19.354;2023-03-21T08:41:40;97806.09;;;9.48;64.06
40285;BME280;25997;50.214;19.354;2023-03-21T08:44:43;97807.78;;;9.46;64.39
40285;BME280;25997;50.214;19.354;2023-03-21T08:47:46;97807.94;;;9.52;64.21
40285;BME280;25997;50.214;19.354;2023-03-21T08:50:49;97802.91;;;9.59;64.01
40285;BME280;25997;50.214;19.354;2023-03-21T08:53:52;97807.53;;;9.69;64.01
40285;BME280;25997;50.214;19.354;2023-03-21T08:56:54;97807.16;;;9.88;63.91
40285;BME280;25997;50.214;19.354;2023-03-21T08:59:57;97799.81;;;10.08;63.47
40285;BME280;25997;50.214;19.354;2023-03-21T09:02:59;97805.06;;;10.08;63.23
40285;BME280;25997;50.214;19.354;2023-03-21T09:06:07;97809.94;;;10.29;63.97
40285;BME280;25997;50.214;19.354;2023-03-21T09:09:11;97814.53;;;10.40;62.60
40285;BME280;25997;50.214;19.354;2023-03-21T09:12:14;97809.16;;;10.33;62.40
40285;BME280;25997;50.214;19.354;2023-03-21T09:15:17;97821.19;;;10.25;62.67
40285;BME280;25997;50.214;19.354;2023-03-21T09:18:21;97817.00;;;10.33;62.95
40285;BME280;25997;50.214;19.354;2023-03-21T09:21:45;97814.53;;;10.40;62.60
40285;BME280;25997;50.214;19.354;2023-03-21T09:24:48;97824.41;;;10.50;62.45
40285;BME280;25997;50.214;19.354;2023-03-21T09:27:50;97815.56;;;10.47;62.00
40285;BME280;25997;50.214;19.354;2023-03-21T09:30:53;97819.03;;;10.44;61.92
40285;BME280;25997;50.214;19.354;2023-03-21T09:33:56;97824.34;;;10.47;62.09
40285;BME280;25997;50.214;19.354;2023-03-21T09:37:01;97822.53;;;10.45;61.85
40285;BME280;25997;50.214;19.354;2023-03-21T09:40:16;97822.53;;;10.45;61.91
40285;BME280;25997;50.214;19.354;2023-03-21T09:43:29;97826.13;;;10.48;61.46
40285;BME280;25997;50.214;19.354;2023-03-21T09:46:40;97836.66;;;10.50;61.52
40285;BME280;25997;50.214;19.354;2023-03-21T09:49:47;97825.53;;;10.61;61.38
40285;BME280;25997;50.214;19.354;2023-03-21T09:52:56;97830.47;;;10.46;61.22
40285;BME280;25997;50.214;19.354;2023-03-21T09:56:00;97829.44;;;10.40;61.16
40285;BME280;25997;50.214;19.354;2023-03-21T09:59:04;97823.91;;;10.66;61.53
40285;BME280;25997;50.214;19.354;2023-03-21T10:02:20;97834.16;;;10.95;60.53
40285;BME280;25997;50.214;19.354;2023-03-21T10:05:32;97828.03;;;10.96;59.77
40285;BME280;25997;50.214;19.354;2023-03-21T10:08:42;97827.16;;;10.95;59.34
40285;BME280;25997;50.214;19.354;2023-03-21T10:11:49;97829.78;;;10.95;58.93
40285;BME280;25997;50.214;19.354;2023-03-21T10:14:54;97833.03;;;10.82;58.96
40285;BME280;25997;50.214;19.354;2023-03-21T10:18:00;97826.97;;;10.86;58.40
40285;BME280;25997;50.214;19.354;2023-03-21T10:21:04;97830.28;;;10.78;58.64
40285;BME280;25997;50.214;19.354;2023-03-21T10:24:10;97819.81;;;10.79;58.56
40285;BME280;25997;50.214;19.354;2023-03-21T10:27:14;97819.00;;;10.83;58.62
40285;BME280;25997;50.214;19.354;2023-03-21T10:30:25;97825.03;;;10.78;58.26
40285;BME280;25997;50.214;19.354;2023-03-21T10:33:33;97829.63;;;10.89;57.82
40285;BME280;25997;50.214;19.354;2023-03-21T10:36:36;97833.72;;;10.75;58.38
40285;BME280;25997;50.214;19.354;2023-03-21T10:39:42;97830.44;;;10.85;58.58
40285;BME280;25997;50.214;19.354;2023-03-21T10:42:44;97825.50;;;11.00;57.87
40285;BME280;25997;50.214;19.354;2023-03-21T10:45:47;97834.66;;;10.77;57.65
40285;BME280;25997;50.214;19.354;2023-03-21T10:48:52;97830.91;;;10.66;57.36
40285;BME280;25997;50.214;19.354;2023-03-21T10:51:56;97830.94;;;10.67;57.90
40285;BME280;25997;50.214;19.354;2023-03-21T10:55:07;97834.66;;;10.79;57.61
40285;BME280;25997;50.214;19.354;2023-03-21T10:58:19;97834.94;;;10.91;57.56
40285;BME280;25997;50.214;19.354;2023-03-21T11:01:28;97838.91;;;11.11;56.16
40285;BME280;25997;50.214;19.354;2023-03-21T11:04:32;97830.72;;;10.97;56.18
40285;BME280;25997;50.214;19.354;2023-03-21T11:07:35;97830.53;;;10.90;55.92
40285;BME280;25997;50.214;19.354;2023-03-21T11:10:51;97841.06;;;10.91;55.51
40285;BME280;25997;50.214;19.354;2023-03-21T11:13:58;97825.19;;;10.87;55.17
40285;BME280;25997;50.214;19.354;2023-03-21T11:17:01;97834.16;;;10.95;55.05
40285;BME280;25997;50.214;19.354;2023-03-21T11:20:16;97825.56;;;11.02;54.84
40285;BME280;25997;50.214;19.354;2023-03-21T11:23:20;97834.38;;;11.05;54.37
40285;BME280;25997;50.214;19.354;2023-03-21T11:26:31;97825.81;;;11.14;53.42
40285;BME280;25997;50.214;19.354;2023-03-21T11:29:36;97831.16;;;11.18;52.39
40285;BME280;25997;50.214;19.354;2023-03-21T11:32:41;97825.97;;;11.21;53.96
40285;BME280;25997;50.214;19.354;2023-03-21T11:35:57;97829.59;;;11.26;53.53
40285;BME280;25997;50.214;19.354;2023-03-21T11:39:12;97826.00;;;11.23;52.12
40285;BME280;25997;50.214;19.354;2023-03-21T11:42:29;97827.41;;;11.07;52.33
40285;BME280;25997;50.214;19.354;2023-03-21T11:45:33;97824.56;;;10.98;53.33
40285;BME280;25997;50.214;19.354;2023-03-21T11:48:39;97811.53;;;11.01;53.40
40285;BME280;25997;50.214;19.354;2023-03-21T11:51:47;97813.03;;;10.89;53.14
40285;BME280;25997;50.214;19.354;2023-03-21T11:55:04;97811.31;;;10.92;53.76
40285;BME280;25997;50.214;19.354;2023-03-21T11:58:29;97808.34;;;11.16;53.55
40285;BME280;25997;50.214;19.354;2023-03-21T12:01:39;97810.97;;;11.16;53.60
40285;BME280;25997;50.214;19.354;2023-03-21T12:04:50;97811.31;;;11.34;53.67
40285;BME280;25997;50.214;19.354;2023-03-21T12:08:01;97806.13;;;11.37;53.34
40285;BME280;25997;50.214;19.354;2023-03-21T12:11:13;97809.03;;;11.51;53.56
40285;BME280;25997;50.214;19.354;2023-03-21T12:14:23;97803.69;;;11.46;53.02
40285;BME280;25997;50.214;19.354;2023-03-21T12:17:37;97803.06;;;11.61;53.43
40285;BME280;25997;50.214;19.354;2023-03-21T12:20:47;97805.94;;;11.73;53.22
40285;BME280;25997;50.214;19.354;2023-03-21T12:23:59;97807.47;;;11.62;51.95
40285;BME280;25997;50.214;19.354;2023-03-21T12:27:09;97804.34;;;11.34;52.86
40285;BME280;25997;50.214;19.354;2023-03-21T12:30:36;97795.44;;;11.26;52.35
40285;BME280;25997;50.214;19.354;2023-03-21T12:33:58;97791.16;;;11.33;53.05
40285;BME280;25997;50.214;19.354;2023-03-21T12:37:10;97789.31;;;11.29;53.00
40285;BME280;25997;50.214;19.354;2023-03-21T12:40:21;97791.66;;;11.14;53.14
40285;BME280;25997;50.214;19.354;2023-03-21T12:43:32;97789.50;;;10.96;53.61
40285;BME280;25997;50.214;19.354;2023-03-21T12:46:44;97786.06;;;10.99;53.62
40285;BME280;25997;50.214;19.354;2023-03-21T12:49:50;97786.84;;;10.93;53.57
40285;BME280;25997;50.214;19.354;2023-03-21T12:52:57;97787.75;;;10.95;53.89
40285;BME280;25997;50.214;19.354;2023-03-21T12:56:07;97779.50;;;10.77;53.91
40285;BME280;25997;50.214;19.354;2023-03-21T12:59:19;97779.00;;;10.54;54.36
40285;BME280;25997;50.214;19.354;2023-03-21T13:02:28;97776.00;;;10.38;54.91
40285;BME280;25997;50.214;19.354;2023-03-21T13:05:33;97779.16;;;10.22;55.40
40285;BME280;25997;50.214;19.354;2023-03-21T13:08:40;97776.34;;;10.16;55.96
40285;BME280;25997;50.214;19.354;2023-03-21T13:11:44;97772.59;;;10.05;56.43
40285;BME280;25997;50.214;19.354;2023-03-21T13:14:58;97768.25;;;10.05;56.44
40285;BME280;25997;50.214;19.354;2023-03-21T13:18:14;97771.75;;;10.06;56.70
40285;BME280;25997;50.214;19.354;2023-03-21T13:21:26;97775.22;;;10.05;56.75
40285;BME280;25997;50.214;19.354;2023-03-21T13:24:32;97772.72;;;10.09;57.00
40285;BME280;25997;50.214;19.354;2023-03-21T13:27:40;97777.13;;;10.10;57.01
40285;BME280;25997;50.214;19.354;2023-03-21T13:30:46;97776.25;;;10.11;56.90
40285;BME280;25997;50.214;19.354;2023-03-21T13:33:52;97779.88;;;10.16;57.34
40285;BME280;25997;50.214;19.354;2023-03-21T13:36:56;97777.19;;;10.13;57.10
40285;BME280;25997;50.214;19.354;2023-03-21T13:40:00;97769.25;;;10.10;57.54
40285;BME280;25997;50.214;19.354;2023-03-21T13:43:33;97776.44;;;10.19;57.63
40285;BME280;25997;50.214;19.354;2023-03-21T13:46:43;97775.03;;;10.33;58.23
40285;BME280;25997;50.214;19.354;2023-03-21T13:50:23;97769.50;;;10.61;58.07
40285;BME280;25997;50.214;19.354;2023-03-21T13:53:30;97771.66;;;10.80;57.61
40285;BME280;25997;50.214;19.354;2023-03-21T13:56:48;97767.41;;;10.87;56.67
40285;BME280;25997;50.214;19.354;2023-03-21T14:00:14;97761.03;;;10.72;56.21
40285;BME280;25997;50.214;19.354;2023-03-21T14:03:17;97765.09;;;10.58;56.58
40285;BME280;25997;50.214;19.354;2023-03-21T14:06:29;97760.44;;;10.45;56.86
40285;BME280;25997;50.214;19.354;2023-03-21T14:09:36;97757.69;;;10.39;56.77
40285;BME280;25997;50.214;19.354;2023-03-21T14:12:41;97757.91;;;10.51;56.87
40285;BME280;25997;50.214;19.354;2023-03-21T14:15:47;97761.53;;;10.55;56.74
40285;BME280;25997;50.214;19.354;2023-03-21T14:18:53;97765.19;;;10.63;56.55
40285;BME280;25997;50.214;19.354;2023-03-21T14:21:57;97755.47;;;10.59;56.65
40285;BME280;25997;50.214;19.354;2023-03-21T14:25:01;97754.47;;;10.52;56.68
40285;BME280;25997;50.214;19.354;2023-03-21T14:28:06;97755.09;;;10.42;57.18
40285;BME280;25997;50.214;19.354;2023-03-21T14:31:13;97752.66;;;10.50;57.24
40285;BME280;25997;50.214;19.354;2023-03-21T14:34:17;97749.09;;;10.46;57.06
40285;BME280;25997;50.214;19.354;2023-03-21T14:37:30;97757.06;;;10.51;56.65
40285;BME280;25997;50.214;19.354;2023-03-21T14:40:34;97751.91;;;10.55;56.88
40285;BME280;25997;50.214;19.354;2023-03-21T14:43:36;97753.69;;;10.58;56.77
40285;BME280;25997;50.214;19.354;2023-03-21T14:46:39;97759.00;;;10.59;56.59
40285;BME280;25997;50.214;19.354;2023-03-21T14:49:43;97751.16;;;10.62;56.13
40285;BME280;25997;50.214;19.354;2023-03-21T14:52:47;97746.69;;;10.57;56.88
40285;BME280;25997;50.214;19.354;2023-03-21T14:55:53;97741.47;;;10.60;56.84
40285;BME280;25997;50.214;19.354;2023-03-21T14:58:58;97744.09;;;10.60;57.15
40285;BME280;25997;50.214;19.354;2023-03-21T15:02:03;97751.97;;;10.60;57.26
40285;BME280;25997;50.214;19.354;2023-03-21T15:05:09;97750.19;;;10.57;57.26
40285;BME280;25997;50.214;19.354;2023-03-21T15:08:18;97745.78;;;10.56;57.27
40285;BME280;25997;50.214;19.354;2023-03-21T15:11:29;97744.16;;;10.61;57.45
40285;BME280;25997;50.214;19.354;2023-03-21T15:14:33;97744.19;;;10.64;57.48
40285;BME280;25997;50.214;19.354;2023-03-21T15:17:36;97749.44;;;10.63;57.15
40285;BME280;25997;50.214;19.354;2023-03-21T15:20:39;97749.53;;;10.69;57.28
40285;BME280;25997;50.214;19.354;2023-03-21T15:23:45;97740.91;;;10.73;57.38
40285;BME280;25997;50.214;19.354;2023-03-21T15:26:49;97739.19;;;10.75;57.66
40285;BME280;25997;50.214;19.354;2023-03-21T15:29:52;97741.00;;;10.78;57.41
40285;BME280;25997;50.214;19.354;2023-03-21T15:32:56;97735.69;;;10.76;57.32
40285;BME280;25997;50.214;19.354;2023-03-21T15:36:00;97729.50;;;10.72;57.09
40285;BME280;25997;50.214;19.354;2023-03-21T15:39:06;97730.50;;;10.79;57.04
40285;BME280;25997;50.214;19.354;2023-03-21T15:42:23;97732.31;;;10.82;56.82
40285;BME280;25997;50.214;19.354;2023-03-21T15:45:26;97731.53;;;10.86;57.03
40285;BME280;25997;50.214;19.354;2023-03-21T15:48:33;97732.44;;;10.88;57.17
40285;BME280;25997;50.214;19.354;2023-03-21T15:51:36;97723.72;;;10.90;57.42
40285;BME280;25997;50.214;19.354;2023-03-21T15:54:43;97731.72;;;10.96;57.29
40285;BME280;25997;50.214;19.354;2023-03-21T15:57:47;97739.56;;;10.93;57.18
40285;BME280;25997;50.214;19.354;2023-03-21T16:00:51;97721.09;;;10.89;57.26
40285;BME280;25997;50.214;19.354;2023-03-21T16:03:56;97732.44;;;10.88;57.29
40285;BME280;25997;50.214;19.354;2023-03-21T16:07:00;97726.28;;;10.87;57.29
40285;BME280;25997;50.214;19.354;2023-03-21T16:10:23;97727.19;;;10.88;57.08
40285;BME280;25997;50.214;19.354;2023-03-21T16:13:27;97729.72;;;10.85;57.11
40285;BME280;25997;50.214;19.354;2023-03-21T16:16:30;97734.13;;;10.84;57.14
40285;BME280;25997;50.214;19.354;2023-03-21T16:19:32;97731.41;;;10.80;57.21
40285;BME280;25997;50.214;19.354;2023-03-21T16:22:35;97735.59;;;10.71;57.48
40285;BME280;25997;50.214;19.354;2023-03-21T16:25:39;97737.38;;;10.72;57.58
40285;BME280;25997;50.214;19.354;2023-03-21T16:28:43;97736.50;;;10.72;57.34
40285;BME280;25997;50.214;19.354;2023-03-21T16:31:46;97732.22;;;10.77;57.10
40285;BME280;25997;50.214;19.354;2023-03-21T16:34:49;97732.16;;;10.75;57.19
40285;BME280;25997;50.214;19.354;2023-03-21T16:37:53;97737.41;;;10.74;57.28
40285;BME280;25997;50.214;19.354;2023-03-21T16:40:57;97739.09;;;10.70;57.06